createdAt,value
2023-03-19T00:02:04.070Z,13.48
2023-03-19T00:04:41.951Z,13.45
2023-03-19T00:07:11.641Z,13.60
2023-03-19T00:09:41.654Z,14.35
2023-03-19T00:12:13.567Z,13.35
2023-03-19T00:14:43.574Z,13.55
2023-03-19T00:17:13.656Z,11.85
2023-03-19T00:19:43.189Z,14.38
2023-03-19T00:22:13.440Z,11.15
2023-03-19T00:24:43.013Z,14.57
2023-03-19T00:27:13.563Z,12.88
2023-03-19T00:29:43.255Z,13.93
2023-03-19T00:32:12.978Z,14.85
2023-03-19T00:34:43.403Z,12.20
2023-03-19T00:37:13.755Z,13.80
2023-03-19T00:39:43.469Z,13.52
2023-03-19T00:42:13.584Z,11.57
2023-03-19T00:44:43.412Z,10.02
2023-03-19T00:47:13.498Z,11.80
2023-03-19T00:49:43.196Z,13.95
2023-03-19T00:52:12.793Z,12.73
2023-03-19T00:54:43.103Z,14.15
2023-03-19T00:57:12.933Z,14.32
2023-03-19T00:59:42.909Z,14.25
2023-03-19T01:02:12.564Z,13.30
2023-03-19T01:04:42.467Z,13.45
2023-03-19T01:07:12.914Z,12.30
2023-03-19T01:09:42.827Z,12.77
2023-03-19T01:12:12.663Z,12.23
2023-03-19T01:14:42.739Z,12.15
2023-03-19T01:17:12.411Z,13.93
2023-03-19T01:19:41.941Z,13.75
2023-03-19T01:22:11.636Z,12.32
2023-03-19T01:24:41.236Z,13.52
2023-03-19T01:27:11.382Z,14.20
2023-03-19T01:29:41.079Z,14.10
2023-03-19T01:32:10.693Z,12.95
2023-03-19T01:34:40.277Z,12.57
2023-03-19T01:37:09.882Z,13.57
2023-03-19T01:39:39.604Z,12.80
2023-03-19T01:42:09.894Z,12.90
2023-03-19T01:44:41.255Z,14.10
2023-03-19T01:47:18.361Z,13.05
2023-03-19T01:49:59.232Z,12.60
2023-03-19T01:52:34.103Z,14.98
2023-03-19T01:55:07.190Z,13.98
2023-03-19T01:57:38.102Z,13.70
2023-03-19T02:00:09.663Z,13.43
2023-03-19T02:02:42.731Z,14.93
2023-03-19T02:05:19.301Z,14.40
2023-03-19T02:07:49.190Z,13.32
2023-03-19T02:10:20.093Z,14.43
2023-03-19T02:12:50.029Z,13.45
2023-03-19T02:15:20.243Z,13.20
2023-03-19T02:17:50.807Z,13.30
2023-03-19T02:20:29.468Z,13.48
2023-03-19T02:23:08.125Z,14.50
2023-03-19T02:25:47.092Z,12.10
2023-03-19T02:28:21.148Z,13.38
2023-03-19T02:30:50.953Z,13.27
2023-03-19T02:33:21.809Z,14.40
2023-03-19T02:35:54.491Z,12.15
2023-03-19T02:38:26.198Z,13.33
2023-03-19T02:41:03.963Z,14.85
2023-03-19T02:43:35.801Z,11.32
2023-03-19T02:46:07.874Z,11.68
2023-03-19T02:48:38.221Z,13.73
2023-03-19T02:51:08.343Z,12.18
2023-03-19T02:53:38.348Z,11.18
2023-03-19T02:56:08.192Z,12.20
2023-03-19T02:58:37.869Z,12.88
2023-03-19T03:01:07.941Z,13.10
2023-03-19T03:03:37.573Z,13.88
2023-03-19T03:06:07.659Z,15.07
2023-03-19T03:08:38.259Z,13.70
2023-03-19T03:11:08.085Z,13.73
2023-03-19T03:13:38.214Z,13.40
2023-03-19T03:16:08.164Z,14.50
2023-03-19T03:18:38.291Z,13.95
2023-03-19T03:21:07.998Z,14.25
2023-03-19T03:23:38.238Z,15.50
2023-03-19T03:26:08.951Z,15.68
2023-03-19T03:28:38.503Z,15.00
2023-03-19T03:31:08.204Z,11.52
2023-03-19T03:33:38.335Z,14.98
2023-03-19T03:36:08.705Z,13.95
2023-03-19T03:38:38.278Z,14.25
2023-03-19T03:41:08.589Z,15.30
2023-03-19T03:43:38.160Z,16.85
2023-03-19T03:46:08.932Z,15.30
2023-03-19T03:48:38.672Z,13.93
2023-03-19T03:51:09.025Z,15.68
2023-03-19T03:53:38.622Z,16.10
2023-03-19T03:56:08.638Z,14.43
2023-03-19T03:58:38.269Z,15.88
2023-03-19T04:01:09.169Z,14.95
2023-03-19T04:03:39.190Z,16.95
2023-03-19T04:06:08.955Z,17.23
2023-03-19T04:08:38.603Z,16.17
2023-03-19T04:11:11.464Z,17.60
2023-03-19T04:13:41.317Z,17.67
2023-03-19T04:16:12.573Z,18.25
2023-03-19T04:18:42.243Z,16.75
2023-03-19T04:21:11.847Z,16.00
2023-03-19T04:23:41.471Z,17.45
2023-03-19T04:26:12.043Z,17.27
2023-03-19T04:28:41.573Z,16.77
2023-03-19T04:31:12.353Z,16.58
2023-03-19T04:33:41.950Z,16.38
2023-03-19T04:36:11.580Z,18.65
2023-03-19T04:38:41.170Z,19.65
2023-03-19T04:41:10.725Z,15.50
2023-03-19T04:43:40.320Z,18.35
2023-03-19T04:46:10.040Z,18.75
2023-03-19T04:48:40.985Z,17.73
2023-03-19T04:51:11.102Z,16.67
2023-03-19T04:53:41.501Z,17.98
2023-03-19T04:56:11.274Z,18.63
2023-03-19T04:58:40.885Z,18.55
2023-03-19T05:01:10.722Z,18.45
2023-03-19T05:03:40.602Z,18.83
2023-03-19T05:06:10.843Z,20.52
2023-03-19T05:08:40.409Z,20.15
2023-03-19T05:11:10.125Z,19.02
2023-03-19T05:13:39.731Z,19.48
2023-03-19T05:16:09.573Z,19.92
2023-03-19T05:18:41.269Z,19.75
2023-03-19T05:21:13.939Z,19.05
2023-03-19T05:23:43.672Z,18.63
2023-03-19T05:26:13.689Z,17.98
2023-03-19T05:28:43.309Z,18.52
2023-03-19T05:31:12.887Z,17.65
2023-03-19T05:33:43.382Z,18.13
2023-03-19T05:36:13.900Z,16.58
2023-03-19T05:38:43.585Z,16.75
2023-03-19T05:41:13.319Z,16.02
2023-03-19T05:43:43.205Z,16.52
2023-03-19T05:46:12.988Z,17.13
2023-03-19T05:48:42.620Z,15.30
2023-03-19T05:51:13.168Z,16.40
2023-03-19T05:53:42.731Z,15.48
2023-03-19T05:56:12.474Z,15.70
2023-03-19T05:58:42.086Z,15.68
2023-03-19T06:01:12.066Z,15.60
2023-03-19T06:03:41.782Z,16.73
2023-03-19T06:06:11.452Z,16.23
2023-03-19T06:08:41.184Z,15.75
2023-03-19T06:11:11.701Z,14.75
2023-03-19T06:13:41.376Z,15.40
2023-03-19T06:16:11.354Z,15.73
2023-03-19T06:18:41.194Z,14.32
2023-03-19T06:21:11.295Z,16.73
2023-03-19T06:23:41.126Z,16.17
2023-03-19T06:26:10.816Z,15.10
2023-03-19T06:28:40.374Z,17.17
2023-03-19T06:31:09.981Z,15.73
2023-03-19T06:33:39.526Z,15.25
2023-03-19T06:36:09.364Z,16.02
2023-03-19T06:38:39.356Z,16.02
2023-03-19T06:41:09.348Z,16.05
2023-03-19T06:43:39.090Z,15.85
2023-03-19T06:46:10.862Z,16.83
2023-03-19T06:48:41.332Z,15.55
2023-03-19T06:51:10.997Z,15.43
2023-03-19T06:53:41.405Z,16.70
2023-03-19T06:56:11.936Z,16.05
2023-03-19T06:58:41.517Z,15.40
2023-03-19T07:01:11.161Z,15.98
2023-03-19T07:03:40.759Z,15.02
2023-03-19T07:06:10.638Z,14.73
2023-03-19T07:08:40.215Z,15.65
2023-03-19T07:11:10.237Z,16.08
2023-03-19T07:13:39.815Z,15.90
2023-03-19T07:16:10.345Z,14.07
2023-03-19T07:18:39.998Z,15.80
2023-03-19T07:21:12.547Z,14.27
2023-03-19T07:23:43.115Z,15.07
2023-03-19T07:26:13.168Z,15.20
2023-03-19T07:28:43.117Z,14.80
2023-03-19T07:31:12.868Z,14.82
2023-03-19T07:33:42.554Z,15.05
2023-03-19T07:36:12.850Z,14.80
2023-03-19T07:38:42.503Z,15.18
2023-03-19T07:41:12.204Z,12.80
2023-03-19T07:43:41.934Z,14.30
2023-03-19T07:46:11.839Z,15.05
2023-03-19T07:48:41.510Z,14.13
2023-03-19T07:51:11.073Z,14.40
2023-03-19T07:53:40.752Z,14.35
2023-03-19T07:56:10.427Z,15.23
2023-03-19T07:58:39.969Z,15.57
2023-03-19T08:01:10.741Z,14.73
2023-03-19T08:03:41.006Z,14.43
2023-03-19T08:06:10.658Z,13.50
2023-03-19T08:08:40.273Z,15.05
2023-03-19T08:11:10.282Z,14.23
2023-03-19T08:13:39.820Z,13.93
2023-03-19T08:16:10.100Z,13.25
2023-03-19T08:18:39.906Z,15.52
2023-03-19T08:21:09.897Z,13.65
2023-03-19T08:23:39.496Z,14.63
2023-03-19T08:26:09.812Z,14.23
2023-03-19T08:28:40.703Z,14.77
2023-03-19T08:31:12.598Z,13.07
2023-03-19T08:33:43.097Z,14.57
2023-03-19T08:36:16.029Z,15.45
2023-03-19T08:38:45.772Z,14.48
2023-03-19T08:41:15.495Z,14.57
2023-03-19T08:43:45.007Z,13.40
2023-03-19T08:46:14.844Z,14.60
2023-03-19T08:48:44.754Z,13.25
2023-03-19T08:51:14.537Z,13.85
2023-03-19T08:53:44.103Z,14.02
2023-03-19T08:56:13.727Z,14.63
2023-03-19T08:58:44.228Z,14.02
2023-03-19T09:01:16.254Z,14.32
2023-03-19T09:03:46.936Z,13.98
2023-03-19T09:06:16.546Z,14.48
2023-03-19T09:08:46.375Z,14.65
2023-03-19T09:11:18.310Z,14.25
2023-03-19T09:13:48.074Z,14.95
2023-03-19T09:16:18.288Z,14.10
2023-03-19T09:18:48.180Z,14.70
2023-03-19T09:21:17.819Z,14.57
2023-03-19T09:23:47.549Z,13.57
2023-03-19T09:26:17.182Z,15.88
2023-03-19T09:28:46.745Z,14.50
2023-03-19T09:31:16.387Z,14.13
2023-03-19T09:33:46.063Z,15.18
2023-03-19T09:36:15.683Z,14.48
2023-03-19T09:38:45.248Z,14.75
2023-03-19T09:41:41.879Z,13.30
2023-03-19T09:44:37.172Z,14.40
2023-03-19T09:47:06.930Z,14.45
2023-03-19T09:49:45.178Z,14.55
2023-03-19T09:52:39.140Z,13.98
2023-03-19T09:55:19.088Z,14.77
2023-03-19T09:57:50.024Z,13.35
2023-03-19T10:00:30.255Z,15.73
2023-03-19T10:03:45.515Z,13.75
2023-03-19T10:06:35.248Z,14.25
2023-03-19T10:09:23.004Z,14.55
2023-03-19T10:12:07.853Z,14.13
2023-03-19T10:14:50.316Z,14.30
2023-03-19T10:17:37.164Z,14.30
2023-03-19T10:20:12.107Z,15.20
2023-03-19T10:22:59.460Z,16.40
2023-03-19T10:25:31.483Z,15.38
2023-03-19T10:28:22.890Z,15.77
2023-03-19T10:31:31.527Z,15.25
2023-03-19T10:34:34.203Z,16.20
2023-03-19T10:37:09.488Z,15.27
2023-03-19T10:39:41.558Z,16.00
2023-03-19T10:42:11.102Z,16.80
2023-03-19T10:45:09.636Z,16.17
2023-03-19T10:47:43.581Z,16.58
2023-03-19T10:50:22.392Z,16.52
2023-03-19T10:53:05.634Z,17.27
2023-03-19T10:55:36.418Z,16.60
2023-03-19T10:58:17.332Z,16.73
2023-03-19T11:00:51.337Z,16.08
2023-03-19T11:03:34.380Z,15.90
2023-03-19T11:06:10.439Z,17.33
2023-03-19T11:08:40.586Z,18.10
2023-03-19T11:11:34.624Z,17.92
2023-03-19T11:14:21.834Z,17.05
2023-03-19T11:17:31.423Z,17.33
2023-03-19T11:20:10.114Z,17.30
2023-03-19T11:22:41.923Z,17.35
2023-03-19T11:25:30.664Z,17.45
2023-03-19T11:28:22.103Z,19.08
2023-03-19T11:31:35.485Z,18.27
2023-03-19T11:34:05.076Z,17.38
2023-03-19T11:36:40.545Z,17.95
2023-03-19T11:39:29.015Z,17.90
2023-03-19T11:42:23.456Z,18.40
2023-03-19T11:45:03.323Z,18.98
2023-03-19T11:47:45.022Z,16.73
2023-03-19T11:50:29.452Z,19.58
2023-03-19T11:53:01.945Z,18.35
2023-03-19T11:55:41.577Z,19.25
2023-03-19T11:58:38.836Z,18.70
2023-03-19T12:01:46.074Z,18.80
2023-03-19T12:04:52.359Z,19.48
2023-03-19T12:07:44.052Z,19.70
2023-03-19T12:10:29.225Z,20.15
2023-03-19T12:13:23.869Z,18.85
2023-03-19T12:16:20.333Z,19.77
2023-03-19T12:19:02.032Z,20.33
2023-03-19T12:21:43.676Z,21.48
2023-03-19T12:24:23.170Z,20.05
2023-03-19T12:27:05.852Z,19.02
2023-03-19T12:29:58.977Z,20.88
2023-03-19T12:32:34.771Z,20.25
2023-03-19T12:35:21.296Z,20.50
2023-03-19T12:38:15.778Z,19.67
2023-03-19T12:40:50.181Z,19.52
2023-03-19T12:43:56.864Z,20.15
2023-03-19T12:46:39.488Z,21.42
2023-03-19T12:49:48.063Z,21.65
2023-03-19T12:52:20.436Z,21.10
2023-03-19T12:55:06.015Z,22.15
2023-03-19T12:57:38.252Z,21.98
2023-03-19T13:00:21.790Z,20.92
2023-03-19T13:02:59.192Z,20.75
2023-03-19T13:05:47.926Z,22.23
2023-03-19T13:08:40.045Z,21.73
2023-03-19T13:11:28.154Z,21.45
2023-03-19T13:14:06.165Z,21.80
2023-03-19T13:17:04.788Z,23.27
2023-03-19T13:19:43.607Z,22.52
2023-03-19T13:22:17.605Z,22.42
2023-03-19T13:24:49.604Z,20.75
2023-03-19T13:27:32.996Z,21.27
2023-03-19T13:30:14.671Z,22.15
2023-03-19T13:32:53.751Z,22.20
2023-03-19T13:35:38.673Z,22.13
2023-03-19T13:38:46.379Z,21.52
2023-03-19T13:41:37.370Z,22.50
2023-03-19T13:44:25.152Z,22.10
2023-03-19T13:46:55.061Z,23.38
2023-03-19T13:49:32.621Z,22.33
2023-03-19T13:52:06.284Z,22.23
2023-03-19T13:57:18.408Z,22.55
2023-03-19T13:59:49.945Z,22.25
2023-03-19T14:02:25.778Z,22.08
2023-03-19T14:05:20.105Z,21.17
2023-03-19T14:07:55.574Z,23.20
2023-03-19T14:10:33.566Z,21.90
2023-03-19T14:13:07.956Z,23.45
2023-03-19T14:15:40.963Z,23.27
2023-03-19T14:18:20.335Z,23.55
2023-03-19T14:21:13.023Z,23.73
2023-03-19T14:23:53.173Z,22.38
2023-03-19T14:27:17.704Z,22.30
2023-03-19T14:30:17.439Z,22.73
2023-03-19T14:32:49.529Z,22.67
2023-03-19T14:35:22.213Z,23.25
2023-03-19T14:37:55.933Z,21.58
2023-03-19T14:40:46.402Z,21.75
2023-03-19T14:43:58.723Z,24.13
2023-03-19T14:47:02.717Z,22.20
2023-03-19T14:50:26.915Z,22.60
2023-03-19T14:53:16.302Z,22.93
2023-03-19T14:55:49.398Z,23.63
2023-03-19T14:59:11.118Z,22.15
2023-03-19T15:02:17.272Z,22.50
2023-03-19T15:05:26.239Z,24.17
2023-03-19T15:08:06.036Z,21.70
2023-03-19T15:11:00.339Z,22.83
2023-03-19T15:16:48.031Z,22.60
2023-03-19T15:19:21.954Z,21.17
2023-03-19T15:22:47.886Z,23.33
2023-03-19T15:25:54.196Z,24.55
2023-03-19T15:28:23.820Z,22.25
2023-03-19T15:31:26.806Z,23.08
2023-03-19T15:33:55.361Z,22.05
2023-03-19T15:36:31.568Z,22.63
2023-03-19T15:39:07.813Z,22.15
2023-03-19T15:41:43.365Z,22.75
2023-03-19T15:44:27.635Z,23.15
2023-03-19T15:46:59.560Z,23.05
2023-03-19T15:49:34.517Z,23.13
2023-03-19T15:52:09.114Z,22.25
2023-03-19T15:54:38.859Z,20.13
2023-03-19T15:57:10.410Z,23.70
2023-03-19T15:59:40.368Z,22.60
2023-03-19T16:02:42.003Z,23.42
2023-03-19T16:05:41.041Z,24.15
2023-03-19T16:08:27.762Z,22.27
2023-03-19T16:10:57.764Z,21.13
2023-03-19T16:13:34.715Z,23.30
2023-03-19T16:16:22.985Z,23.17
2023-03-19T16:18:57.740Z,22.90
2023-03-19T16:21:30.111Z,24.00
2023-03-19T16:24:11.198Z,22.80
2023-03-19T16:26:43.851Z,21.98
2023-03-19T16:29:27.832Z,23.55
2023-03-19T16:32:20.917Z,22.98
2023-03-19T16:35:15.688Z,22.88
2023-03-19T16:37:54.946Z,23.02
2023-03-19T16:40:25.336Z,23.75
2023-03-19T16:43:08.062Z,23.85
2023-03-19T16:45:37.850Z,22.85
2023-03-19T16:48:07.691Z,22.45
2023-03-19T16:50:42.403Z,23.60
2023-03-19T16:53:38.047Z,23.27
2023-03-19T16:56:08.146Z,24.38
2023-03-19T16:58:45.785Z,22.73
2023-03-19T17:01:21.453Z,23.65
2023-03-19T17:03:56.528Z,23.38
2023-03-19T17:06:26.671Z,23.65
2023-03-19T17:08:56.439Z,23.42
2023-03-19T17:11:30.182Z,24.00
2023-03-19T17:14:01.301Z,24.65
2023-03-19T17:16:31.688Z,23.75
2023-03-19T17:19:01.523Z,23.05
2023-03-19T17:21:35.034Z,23.90
2023-03-19T17:24:26.036Z,23.45
2023-03-19T17:26:57.175Z,23.23
2023-03-19T17:29:27.727Z,23.75
2023-03-19T17:31:59.862Z,24.15
2023-03-19T17:34:33.419Z,22.92
2023-03-19T17:37:05.263Z,22.95
2023-03-19T17:39:35.653Z,23.45
2023-03-19T17:42:08.907Z,22.33
2023-03-19T17:44:38.522Z,23.30
2023-03-19T17:47:08.277Z,23.00
2023-03-19T17:49:37.886Z,23.42
2023-03-19T17:52:16.385Z,24.17
2023-03-19T17:54:47.137Z,23.48
2023-03-19T17:57:17.803Z,22.92
2023-03-19T17:59:47.501Z,23.45
2023-03-19T18:02:32.019Z,22.70
2023-03-19T18:05:01.786Z,23.90
2023-03-19T18:07:31.420Z,23.40
2023-03-19T18:10:01.036Z,23.63
2023-03-19T18:12:30.621Z,23.73
2023-03-19T18:15:00.280Z,24.33
2023-03-19T18:17:29.778Z,24.13
2023-03-19T18:19:59.827Z,22.88
2023-03-19T18:22:30.626Z,23.42
2023-03-19T18:25:00.264Z,25.40
2023-03-19T18:27:29.849Z,25.58
2023-03-19T18:29:59.491Z,23.35
2023-03-19T18:32:33.909Z,25.25
2023-03-19T18:35:05.062Z,24.30
2023-03-19T18:37:37.653Z,23.38
2023-03-19T18:40:07.744Z,24.40
2023-03-19T18:42:37.411Z,22.90
2023-03-19T18:45:07.495Z,24.75
2023-03-19T18:47:37.868Z,22.90
2023-03-19T18:50:25.021Z,25.58
2023-03-19T18:52:55.970Z,22.90
2023-03-19T18:55:35.603Z,24.50
2023-03-19T18:58:05.719Z,24.83
2023-03-19T19:00:37.713Z,23.98
2023-03-19T19:03:07.646Z,24.02
2023-03-19T19:05:37.852Z,24.23
2023-03-19T19:08:14.965Z,24.55
2023-03-19T19:10:51.000Z,24.15
2023-03-19T19:13:38.635Z,24.52
2023-03-19T19:16:22.460Z,25.45
2023-03-19T19:18:52.011Z,24.95
2023-03-19T19:21:21.666Z,23.67
2023-03-19T19:23:51.273Z,25.35
2023-03-19T19:26:25.831Z,24.88
2023-03-19T19:28:58.225Z,25.58
2023-03-19T19:31:33.823Z,24.23
2023-03-19T19:34:03.513Z,24.77
2023-03-19T19:36:33.361Z,25.23
2023-03-19T19:39:03.026Z,27.00
2023-03-19T19:41:35.457Z,24.42
2023-03-19T19:44:05.233Z,25.25
2023-03-19T19:46:35.231Z,26.23
2023-03-19T19:49:04.864Z,26.27
2023-03-19T19:51:34.416Z,26.90
2023-03-19T19:54:03.933Z,23.77
2023-03-19T19:56:33.607Z,25.40
2023-03-19T19:59:03.266Z,25.88
2023-03-19T20:01:33.103Z,25.92
2023-03-19T20:04:02.833Z,27.00
2023-03-19T20:06:32.506Z,25.63
2023-03-19T20:09:02.138Z,26.83
2023-03-19T20:11:33.501Z,23.15
2023-03-19T20:14:03.111Z,24.25
2023-03-19T20:16:32.681Z,24.10
2023-03-19T20:19:03.084Z,24.70
2023-03-19T20:21:33.577Z,24.90
2023-03-19T20:24:03.337Z,23.02
2023-03-19T20:26:35.462Z,23.42
2023-03-19T20:29:06.138Z,23.38
2023-03-19T20:31:37.856Z,23.65
2023-03-19T20:34:07.407Z,23.85
2023-03-19T20:36:36.942Z,23.17
2023-03-19T20:39:06.588Z,22.80
2023-03-19T20:41:36.267Z,25.15
2023-03-19T20:44:07.559Z,23.98
2023-03-19T20:46:38.130Z,24.45
2023-03-19T20:49:07.857Z,24.30
2023-03-19T20:51:37.425Z,22.83
2023-03-19T20:54:07.627Z,22.92
2023-03-19T20:56:39.273Z,23.70
2023-03-19T20:59:11.875Z,26.20
2023-03-19T21:01:41.556Z,27.05
2023-03-19T21:04:20.075Z,29.05
2023-03-19T21:06:53.634Z,25.25
2023-03-19T21:09:25.121Z,21.95
2023-03-19T21:11:54.741Z,22.98
2023-03-19T21:14:28.459Z,16.85
2023-03-19T21:16:58.002Z,16.73
2023-03-19T21:19:27.609Z,17.95
2023-03-19T21:21:57.275Z,19.10
2023-03-19T21:24:27.771Z,24.92
2023-03-19T21:26:58.405Z,21.73
2023-03-19T21:29:34.670Z,19.05
2023-03-19T21:32:04.182Z,18.48
2023-03-19T21:34:33.869Z,18.42
2023-03-19T21:37:03.559Z,17.73
2023-03-19T21:39:34.073Z,19.90
2023-03-19T21:42:09.686Z,18.60
2023-03-19T21:44:39.735Z,17.50
2023-03-19T21:47:15.248Z,17.83
2023-03-19T21:49:44.871Z,17.13
2023-03-19T21:52:17.242Z,18.85
2023-03-19T21:54:46.856Z,18.70
2023-03-19T21:57:18.773Z,19.20
2023-03-19T21:59:48.564Z,18.05
2023-03-19T22:02:30.276Z,17.08
2023-03-19T22:04:59.951Z,19.13
2023-03-19T22:07:29.723Z,17.65
2023-03-19T22:09:59.445Z,17.42
2023-03-19T22:12:30.816Z,18.05
2023-03-19T22:15:00.382Z,15.23
2023-03-19T22:17:30.718Z,17.65
2023-03-19T22:20:00.387Z,19.88
2023-03-19T22:22:30.570Z,18.92
2023-03-19T22:25:01.812Z,17.25
2023-03-19T22:27:31.444Z,18.02
2023-03-19T22:30:03.590Z,18.73
2023-03-19T22:32:33.363Z,17.50
2023-03-19T22:35:04.700Z,15.07
2023-03-19T22:37:34.492Z,17.65
2023-03-19T22:40:04.146Z,15.30
2023-03-19T22:42:33.806Z,15.70
2023-03-19T22:45:03.476Z,16.75
2023-03-19T22:47:37.487Z,15.40
2023-03-19T22:50:08.412Z,15.70
2023-03-19T22:52:38.235Z,16.35
2023-03-19T22:55:08.234Z,15.77
2023-03-19T22:57:37.762Z,16.90
2023-03-19T23:00:14.666Z,16.17
2023-03-19T23:02:44.878Z,16.98
2023-03-19T23:05:29.435Z,17.25
2023-03-19T23:07:59.462Z,20.55
2023-03-19T23:10:31.990Z,20.38
2023-03-19T23:13:02.456Z,22.27
2023-03-19T23:15:33.130Z,21.67
2023-03-19T23:18:03.784Z,24.02
2023-03-19T23:20:35.231Z,21.85
2023-03-19T23:23:04.777Z,21.88
2023-03-19T23:25:35.374Z,23.90
2023-03-19T23:28:05.399Z,22.85
2023-03-19T23:30:36.025Z,27.42
2023-03-19T23:33:05.856Z,30.52
2023-03-19T23:35:36.686Z,26.80
2023-03-19T23:38:06.434Z,29.88
2023-03-19T23:40:36.654Z,30.45
2023-03-19T23:43:07.151Z,24.13
2023-03-19T23:45:44.765Z,26.98
2023-03-19T23:48:27.361Z,28.88
2023-03-19T23:50:56.878Z,23.05
2023-03-19T23:53:29.004Z,32.03
2023-03-19T23:56:06.320Z,28.25
2023-03-19T23:58:44.649Z,23.08
